Time;durP1;ratioP1;P1;durP2;ratioP2;P2;SDS_P1;SDS_P2;PMS_P1;PMS_P2;Temp;Humidity;BMP_temperature;BMP_pressure;BME280_temperature;BME280_humidity;BME280_pressure;Samples;Min_cycle;Max_cycle;Signal;HPM_P1;HPM_P2
2021/05/26 00:01:47;;;;;;;4.82;1.90;;;;;;;9.82;69.61;100771.81;5052036;28;20049;-75
2021/05/26 00:04:15;;;;;;;4.30;1.50;;;;;;;9.80;70.01;100778.19;5051635;28;20045;-76
2021/05/26 00:06:43;;;;;;;3.90;1.90;;;;;;;9.72;71.07;100774.06;5052501;28;20409;-76
2021/05/26 00:09:11;;;;;;;5.57;1.85;;;;;;;9.71;70.94;100787.47;5055357;28;20048;-77
2021/05/26 00:11:43;;;;;;;4.85;1.75;;;;;;;9.95;69.15;100774.78;5055344;28;20049;-76
2021/05/26 00:14:11;;;;;;;6.13;1.80;;;;;;;9.88;69.54;100776.88;5055019;28;20449;-75
2021/05/26 00:16:39;;;;;;;5.53;1.83;;;;;;;9.83;70.02;100775.34;5055559;28;20041;-74
2021/05/26 00:19:08;;;;;;;3.60;1.65;;;;;;;9.77;70.36;100776.53;5055149;28;20144;-75
2021/05/26 00:21:36;;;;;;;4.63;1.63;;;;;;;9.79;69.96;100774.66;5055605;28;20044;-75
2021/05/26 00:24:04;;;;;;;5.15;1.92;;;;;;;9.74;70.10;100777.53;5054222;28;20052;-77
2021/05/26 00:26:32;;;;;;;5.53;1.80;;;;;;;9.71;70.13;100772.34;5055282;28;20037;-77
2021/05/26 00:29:01;;;;;;;4.43;1.60;;;;;;;9.66;70.62;100781.53;5055207;28;20102;-77
2021/05/26 00:31:29;;;;;;;4.50;1.88;;;;;;;9.67;70.54;100786.78;5055246;28;20045;-76
2021/05/26 00:33:57;;;;;;;4.80;1.92;;;;;;;9.58;71.45;100779.22;5055220;28;20452;-76
2021/05/26 00:36:25;;;;;;;4.07;1.60;;;;;;;9.53;72.16;100777.69;5054857;28;20047;-76
2021/05/26 00:38:53;;;;;;;4.10;1.70;;;;;;;9.52;72.01;100767.97;5055204;28;20045;-76
2021/05/26 00:41:21;;;;;;;3.47;1.50;;;;;;;9.42;71.96;100764.91;5054621;28;20047;-77
2021/05/26 00:43:50;;;;;;;4.03;1.60;;;;;;;9.49;72.03;100758.34;5054782;28;20071;-76
2021/05/26 00:46:19;;;;;;;5.65;2.00;;;;;;;9.43;71.59;100767.47;5054591;28;20457;-74
2021/05/26 00:48:46;;;;;;;3.28;1.80;;;;;;;9.44;71.87;100763.00;5055000;28;20056;-73
2021/05/26 00:51:14;;;;;;;5.20;1.80;;;;;;;9.36;72.35;100751.88;5054521;28;20462;-73
2021/05/26 00:53:43;;;;;;;4.90;1.80;;;;;;;9.31;72.28;100744.09;5054624;28;20044;-73
2021/05/26 00:56:11;;;;;;;3.70;1.60;;;;;;;9.32;72.19;100732.53;5054255;28;20045;-74
2021/05/26 00:58:40;;;;;;;5.75;1.90;;;;;;;9.29;71.99;100734.47;5054423;28;20111;-74
2021/05/26 01:01:11;;;;;;;4.47;1.85;;;;;;;9.30;71.93;100728.22;5054404;28;20044;-74
2021/05/26 01:03:40;;;;;;;4.57;1.70;;;;;;;9.29;71.33;100715.84;5054769;28;20048;-75
2021/05/26 01:06:08;;;;;;;4.15;2.10;;;;;;;9.33;71.15;100717.41;5054131;28;20405;-76
2021/05/26 01:08:36;;;;;;;4.75;1.65;;;;;;;9.26;71.45;100726.59;5054405;28;20055;-74
2021/05/26 01:11:09;;;;;;;3.28;1.63;;;;;;;9.33;70.83;100722.72;5054349;28;20437;-73
2021/05/26 01:13:37;;;;;;;5.78;1.83;;;;;;;9.22;71.46;100730.38;5054639;28;20400;-74
2021/05/26 01:16:05;;;;;;;6.20;1.80;;;;;;;9.23;71.53;100726.75;5054483;28;20068;-79
2021/05/26 01:18:35;;;;;;;5.05;1.73;;;;;;;9.25;71.00;100719.56;5054439;28;20090;-78
2021/05/26 01:21:06;;;;;;;6.10;1.90;;;;;;;9.26;70.65;100718.63;5054419;28;20049;-78
2021/05/26 01:23:40;;;;;;;5.93;1.95;;;;;;;9.17;70.94;100712.81;5054683;28;20056;-73
2021/05/26 01:26:09;;;;;;;4.38;1.67;;;;;;;9.24;70.56;100707.19;5054055;28;20065;-75
2021/05/26 01:28:38;;;;;;;5.22;1.80;;;;;;;9.20;70.99;100714.47;5053095;28;20049;-74
2021/05/26 01:31:06;;;;;;;3.88;1.80;;;;;;;9.27;70.73;100717.72;5054165;28;20075;-78
2021/05/26 01:33:34;;;;;;;6.05;1.92;;;;;;;9.16;71.11;100712.88;5053821;28;20500;-75
2021/05/26 01:36:03;;;;;;;4.80;2.00;;;;;;;9.17;71.07;100710.16;5054259;28;20037;-74
2021/05/26 01:38:32;;;;;;;4.68;2.10;;;;;;;9.16;71.10;100716.41;5053996;28;20049;-76
2021/05/26 01:41:03;;;;;;;9.30;2.08;;;;;;;9.05;71.53;100729.34;5053921;28;20068;-76
2021/05/26 01:43:32;;;;;;;5.00;1.92;;;;;;;8.89;72.96;100731.00;5053581;28;20053;-75
2021/05/26 01:46:01;;;;;;;4.63;2.05;;;;;;;8.85;72.98;100737.38;5053705;28;20048;-75
2021/05/26 01:48:33;;;;;;;4.68;1.75;;;;;;;8.82;72.95;100738.38;5054056;28;20036;-75
2021/05/26 01:51:00;;;;;;;4.57;1.90;;;;;;;8.97;71.88;100739.47;5053863;28;20052;-75
2021/05/26 01:53:29;;;;;;;9.30;2.20;;;;;;;8.82;72.64;100754.34;5053672;28;20041;-75
2021/05/26 01:55:57;;;;;;;4.30;1.70;;;;;;;8.97;72.12;100754.56;5053970;28;20106;-75
2021/05/26 01:58:26;;;;;;;6.05;2.00;;;;;;;8.76;72.83;100769.72;5053456;28;20387;-75
2021/05/26 02:00:54;;;;;;;5.72;1.90;;;;;;;8.62;74.25;100772.13;5053626;28;20053;-75
2021/05/26 02:03:22;;;;;;;4.47;1.70;;;;;;;8.41;75.32;100764.16;5053471;28;20052;-75
2021/05/26 02:05:51;;;;;;;4.90;1.95;;;;;;;8.31;76.33;100768.09;5053624;28;20083;-77
2021/05/26 02:08:19;;;;;;;6.03;2.13;;;;;;;8.19;76.80;100765.94;5053289;28;20037;-77
2021/05/26 02:13:35;;;;;;;5.53;1.92;;;;;;;8.29;76.78;100765.47;5063954;28;20037;-76
2021/05/26 02:16:03;;;;;;;5.50;2.10;;;;;;;8.18;77.73;100769.53;5055817;28;20372;-77
2021/05/26 02:18:31;;;;;;;5.30;2.10;;;;;;;8.03;78.82;100768.41;5053722;28;20076;-78
2021/05/26 02:20:59;;;;;;;6.72;2.30;;;;;;;7.96;79.76;100767.78;5053475;28;20060;-77
2021/05/26 02:23:27;;;;;;;5.10;1.90;;;;;;;7.93;79.49;100761.75;5053481;28;20470;-77
2021/05/26 02:25:56;;;;;;;3.83;2.15;;;;;;;7.89;79.94;100763.63;5053432;28;20040;-77
2021/05/26 02:28:24;;;;;;;5.15;2.30;;;;;;;7.87;79.82;100768.16;5052980;28;20097;-77
2021/05/26 02:30:53;;;;;;;5.43;2.20;;;;;;;7.86;79.50;100765.56;5052681;28;20103;-77
2021/05/26 02:33:24;;;;;;;7.63;2.08;;;;;;;8.01;78.30;100768.47;5052769;28;20080;-75
2021/05/26 02:35:52;;;;;;;5.85;2.10;;;;;;;7.94;79.64;100772.28;5052960;28;20095;-75
2021/05/26 02:38:20;;;;;;;8.15;2.28;;;;;;;7.85;80.71;100770.00;5052601;28;20124;-74
2021/05/26 02:40:48;;;;;;;4.53;2.40;;;;;;;7.76;81.57;100770.38;5052811;28;20094;-75
2021/05/26 02:43:16;;;;;;;7.70;2.75;;;;;;;7.71;81.67;100775.88;5052576;28;20057;-74
2021/05/26 02:45:45;;;;;;;5.70;2.88;;;;;;;7.69;81.99;100783.03;5052924;28;20044;-74
2021/05/26 02:48:14;;;;;;;7.47;2.80;;;;;;;7.67;82.09;100781.38;5052604;28;20052;-76
2021/05/26 02:50:42;;;;;;;5.50;2.40;;;;;;;7.68;82.44;100783.09;5052793;28;20128;-73
2021/05/26 02:53:10;;;;;;;6.18;2.75;;;;;;;7.70;81.61;100775.94;5052866;28;20045;-74
2021/05/26 02:55:38;;;;;;;8.80;2.85;;;;;;;7.70;81.55;100781.25;5052719;28;20135;-73
2021/05/26 02:58:06;;;;;;;7.38;3.13;;;;;;;7.69;81.47;100782.16;5052805;28;20493;-74
2021/05/26 03:00:38;;;;;;;8.95;3.33;;;;;;;7.72;81.42;100782.03;5052819;28;20082;-74
2021/05/26 03:03:06;;;;;;;8.13;3.03;;;;;;;7.98;80.13;100776.53;5052733;28;20444;-75
2021/05/26 03:05:35;;;;;;;5.35;2.42;;;;;;;7.95;79.89;100774.03;5052541;28;20056;-74
2021/05/26 03:08:03;;;;;;;5.85;2.65;;;;;;;7.96;80.67;100785.50;5052915;28;20041;-77
2021/05/26 03:10:31;;;;;;;5.72;2.47;;;;;;;7.94;80.35;100780.25;5052443;28;20049;-76
2021/05/26 03:12:59;;;;;;;8.18;2.80;;;;;;;7.85;81.92;100796.56;5052777;28;20091;-76
2021/05/26 03:15:27;;;;;;;7.75;2.70;;;;;;;7.87;82.38;100799.16;5052331;28;20049;-74
2021/05/26 03:17:55;;;;;;;7.20;2.90;;;;;;;7.90;81.99;100807.84;5052565;28;20037;-74
2021/05/26 03:20:23;;;;;;;8.45;3.13;;;;;;;7.92;82.39;100808.69;5052188;28;20049;-74
2021/05/26 03:22:52;;;;;;;10.05;3.38;;;;;;;7.97;82.22;100813.81;5052416;28;20045;-76
2021/05/26 03:25:20;;;;;;;7.82;3.22;;;;;;;8.02;82.25;100815.34;5052234;28;20111;-78
2021/05/26 03:27:49;;;;;;;9.32;3.50;;;;;;;8.06;81.83;100808.13;5052733;28;20488;-75
2021/05/26 03:30:19;;;;;;;7.68;3.50;;;;;;;8.14;81.47;100808.66;5052216;28;20036;-76
2021/05/26 03:32:47;;;;;;;10.18;3.40;;;;;;;8.21;81.14;100814.59;5052768;28;20057;-76
2021/05/26 03:35:16;;;;;;;9.70;3.88;;;;;;;8.27;80.49;100806.34;5052338;28;20048;-80
2021/05/26 03:37:44;;;;;;;8.68;3.58;;;;;;;8.49;78.99;100809.88;5052642;28;20049;-77
2021/05/26 03:40:16;;;;;;;7.68;3.50;;;;;;;8.92;77.22;100815.13;5052396;28;20470;-75
2021/05/26 03:42:45;;;;;;;8.35;3.08;;;;;;;10.03;73.84;100820.53;5054299;28;20102;-76
2021/05/26 03:45:14;;;;;;;9.05;3.45;;;;;;;11.30;68.21;100817.59;5056159;28;20041;-76
2021/05/26 03:47:41;;;;;;;7.40;3.28;;;;;;;12.51;63.22;100824.09;5056289;28;20041;-75
2021/05/26 03:50:13;;;;;;;7.65;2.72;;;;;;;13.44;59.66;100821.13;5056140;28;20132;-76
2021/05/26 03:52:42;;;;;;;6.97;2.78;;;;;;;13.94;57.73;100817.00;5055823;28;20037;-77
2021/05/26 03:55:14;;;;;;;8.13;3.03;;;;;;;14.63;55.69;100816.00;5055828;28;20045;-76
2021/05/26 03:57:43;;;;;;;6.75;3.17;;;;;;;15.03;54.02;100819.47;5056088;28;20565;-75
2021/05/26 04:00:14;;;;;;;8.15;3.47;;;;;;;15.59;52.68;100819.09;5056243;28;20041;-77
2021/05/26 04:02:42;;;;;;;8.10;3.63;;;;;;;16.03;51.19;100816.75;5055735;28;20446;-77
2021/05/26 04:05:11;;;;;;;7.22;3.22;;;;;;;16.61;48.72;100814.22;5055938;28;20044;-77
2021/05/26 04:07:40;;;;;;;8.18;3.20;;;;;;;17.13;47.26;100800.28;5055579;28;20048;-78
2021/05/26 04:10:09;;;;;;;9.55;2.80;;;;;;;17.00;47.17;100804.06;5055862;28;20132;-75
2021/05/26 04:12:38;;;;;;;7.57;3.33;;;;;;;17.39;45.79;100802.75;5055577;28;20041;-78
2021/05/26 04:15:08;;;;;;;8.32;3.20;;;;;;;17.28;45.95;100798.22;5055362;28;20040;-75
2021/05/26 04:17:37;;;;;;;8.68;3.28;;;;;;;17.44;46.25;100787.03;5055152;28;20102;-74
2021/05/26 04:20:06;;;;;;;7.97;3.42;;;;;;;17.94;45.21;100785.63;5055316;28;20136;-76
2021/05/26 04:22:35;;;;;;;9.18;3.40;;;;;;;17.73;45.20;100787.41;5055507;28;20049;-77
2021/05/26 04:25:06;;;;;;;11.98;4.07;;;;;;;18.12;44.01;100791.38;5055354;28;20183;-76
2021/05/26 04:27:35;;;;;;;9.70;3.80;;;;;;;18.53;43.70;100797.84;5055168;28;20095;-77
2021/05/26 04:30:05;;;;;;;10.82;3.85;;;;;;;18.79;42.95;100798.34;5055613;28;20052;-76
2021/05/26 04:32:33;;;;;;;10.00;3.40;;;;;;;18.83;43.06;100810.63;5054918;28;20048;-76
2021/05/26 04:35:02;;;;;;;8.95;3.30;;;;;;;18.95;42.72;100806.00;5055030;28;20041;-75
2021/05/26 04:37:32;;;;;;;9.60;3.88;;;;;;;19.26;42.45;100817.69;5054646;28;20049;-75
2021/05/26 04:40:01;;;;;;;8.60;4.20;;;;;;;19.43;41.62;100804.41;5055029;28;20037;-76
2021/05/26 04:42:29;;;;;;;8.65;3.60;;;;;;;19.37;42.02;100804.94;5054642;28;20045;-74
2021/05/26 04:44:57;;;;;;;8.73;4.10;;;;;;;20.04;40.08;100808.03;5055262;28;20393;-75
2021/05/26 04:47:26;;;;;;;11.88;4.40;;;;;;;20.08;40.34;100804.94;5054633;28;20556;-77
2021/05/26 04:49:54;;;;;;;8.43;3.83;;;;;;;20.32;40.09;100796.38;5054933;28;20127;-75
2021/05/26 04:52:22;;;;;;;9.23;3.58;;;;;;;20.65;39.00;100794.25;5054306;28;20051;-80
2021/05/26 04:54:50;;;;;;;6.90;3.50;;;;;;;20.76;38.22;100791.41;5054995;28;20044;-76
2021/05/26 04:57:18;;;;;;;9.15;4.25;;;;;;;20.92;38.03;100786.22;5054907;28;20057;-77
2021/05/26 04:59:49;;;;;;;9.77;3.88;;;;;;;20.94;37.45;100786.97;5055264;28;20053;-77
2021/05/26 05:02:16;;;;;;;7.15;3.42;;;;;;;20.96;36.22;100789.53;5055141;28;20045;-78
2021/05/26 05:04:46;;;;;;;7.30;3.13;;;;;;;20.90;36.67;100790.94;5054294;28;20045;-80
2021/05/26 05:07:14;;;;;;;6.35;3.20;;;;;;;20.96;35.92;100790.38;5054735;28;20052;-79
2021/05/26 05:09:42;;;;;;;6.55;3.10;;;;;;;21.05;36.17;100792.22;5053510;28;20116;-77
2021/05/26 05:12:10;;;;;;;9.82;3.28;;;;;;;20.97;36.17;100797.50;5054537;28;20045;-82
2021/05/26 05:14:38;;;;;;;6.03;3.55;;;;;;;20.55;36.92;100796.97;5054119;28;20046;-82
2021/05/26 05:17:06;;;;;;;6.35;2.92;;;;;;;20.27;36.64;100796.81;5053906;28;20052;-83
2021/05/26 05:19:34;;;;;;;6.95;3.10;;;;;;;20.98;36.45;100793.78;5054413;28;20452;-80
2021/05/26 05:22:03;;;;;;;8.85;3.58;;;;;;;21.05;35.84;100800.34;5054514;28;20095;-82
2021/05/26 05:24:30;;;;;;;8.05;3.30;;;;;;;21.52;35.57;100796.78;5056187;28;20037;-76
2021/05/26 05:26:59;;;;;;;7.85;2.75;;;;;;;21.30;34.95;100803.44;5060596;28;20060;-73
2021/05/26 05:29:27;;;;;;;5.45;2.70;;;;;;;21.34;35.00;100804.88;5055155;28;20128;-75
2021/05/26 05:31:55;;;;;;;7.28;2.65;;;;;;;22.55;33.42;100799.13;5054363;28;20079;-74
2021/05/26 05:34:23;;;;;;;5.43;2.70;;;;;;;22.44;33.05;100794.78;5054289;28;20128;-77
2021/05/26 05:36:51;;;;;;;5.35;2.60;;;;;;;22.23;32.89;100797.81;5054107;28;20064;-77
2021/05/26 05:39:20;;;;;;;5.68;2.85;;;;;;;22.12;33.74;100800.78;5054087;28;20123;-76
2021/05/26 05:41:48;;;;;;;7.68;2.60;;;;;;;22.11;33.78;100799.06;5052733;28;20132;-76
2021/05/26 05:44:16;;;;;;;7.22;2.70;;;;;;;22.37;33.09;100803.72;5053064;28;20053;-76
2021/05/26 05:46:45;;;;;;;5.68;2.55;;;;;;;22.83;32.08;100800.72;5050672;28;20090;-76
2021/05/26 05:49:12;;;;;;;10.75;3.20;;;;;;;22.80;32.91;100801.06;5053794;28;20409;-78
2021/05/26 05:51:40;;;;;;;9.25;2.60;;;;;;;23.20;31.91;100807.84;5053553;28;20090;-77
2021/05/26 05:54:09;;;;;;;8.32;2.85;;;;;;;23.05;32.53;100810.28;5048903;28;21088;-74
2021/05/26 05:56:40;;;;;;;6.45;2.28;;;;;;;23.35;32.14;100811.66;5047487;28;20049;-74
2021/05/26 05:59:08;;;;;;;5.43;2.30;;;;;;;23.57;31.04;100809.41;5053618;28;20056;-73
2021/05/26 06:01:36;;;;;;;6.80;2.70;;;;;;;23.49;30.01;100809.34;5052560;28;20044;-76
2021/05/26 06:04:05;;;;;;;7.43;2.45;;;;;;;23.72;30.02;100801.47;5052262;28;20048;-72
2021/05/26 06:06:32;;;;;;;9.05;2.50;;;;;;;23.48;30.06;100804.94;5052717;28;20120;-77
2021/05/26 06:09:00;;;;;;;5.82;2.05;;;;;;;23.59;29.79;100812.84;5052805;28;20107;-79
2021/05/26 06:11:28;;;;;;;6.50;2.20;;;;;;;23.59;30.12;100810.13;5051694;28;20111;-75
2021/05/26 06:13:57;;;;;;;4.55;2.50;;;;;;;23.57;30.55;100812.13;5051279;28;20065;-74
2021/05/26 06:16:25;;;;;;;6.40;2.30;;;;;;;23.60;31.04;100815.41;5052245;28;20500;-74
2021/05/26 06:18:53;;;;;;;7.22;2.63;;;;;;;23.69;30.21;100813.56;5052371;28;20669;-70
2021/05/26 06:21:21;;;;;;;11.32;2.70;;;;;;;24.03;30.53;100813.53;5052115;28;20079;-71
2021/05/26 06:23:49;;;;;;;8.90;2.97;;;;;;;24.11;29.95;100813.53;5054602;28;20045;-70
2021/05/26 06:26:18;;;;;;;6.93;2.17;;;;;;;24.19;28.98;100815.44;5052183;28;20037;-74
2021/05/26 06:28:46;;;;;;;7.32;2.40;;;;;;;24.58;29.44;100820.28;5052077;28;20456;-74
2021/05/26 06:31:15;;;;;;;5.60;1.98;;;;;;;24.46;29.33;100812.44;5052095;28;20072;-73
2021/05/26 06:33:44;;;;;;;4.43;2.13;;;;;;;24.85;27.99;100809.06;5051743;28;20063;-77
2021/05/26 06:36:12;;;;;;;9.52;2.53;;;;;;;24.70;28.51;100805.28;5051833;28;20037;-75
2021/05/26 06:38:40;;;;;;;4.90;1.95;;;;;;;24.73;28.58;100802.25;5052117;28;20090;-74
2021/05/26 06:41:10;;;;;;;7.75;2.65;;;;;;;24.65;28.33;100794.06;5052326;28;20498;-78
2021/05/26 06:43:39;;;;;;;6.90;2.08;;;;;;;24.48;28.59;100799.50;5051784;28;20053;-78
2021/05/26 06:46:07;;;;;;;4.78;2.00;;;;;;;24.91;28.09;100788.44;5051744;28;20045;-80
2021/05/26 06:48:37;;;;;;;5.63;2.10;;;;;;;24.46;28.49;100795.25;5052092;28;20048;-79
2021/05/26 06:51:05;;;;;;;6.80;2.08;;;;;;;24.22;29.19;100804.19;5051667;28;20056;-75
2021/05/26 06:53:33;;;;;;;5.43;2.03;;;;;;;23.76;28.97;100792.84;5051189;28;20041;-77
2021/05/26 06:56:01;;;;;;;5.15;1.92;;;;;;;23.22;29.33;100789.47;5051715;28;20132;-72
2021/05/26 06:58:29;;;;;;;8.65;2.20;;;;;;;22.37;32.35;100787.41;5051507;28;20049;-75
2021/05/26 07:00:58;;;;;;;5.03;1.80;;;;;;;21.40;31.70;100790.69;5051536;28;20139;-74
2021/05/26 07:03:26;;;;;;;5.45;1.77;;;;;;;20.56;32.95;100798.72;5051699;28;20045;-74
2021/05/26 07:05:55;;;;;;;6.40;2.10;;;;;;;19.97;34.95;100795.03;5051618;28;20128;-74
2021/05/26 07:08:29;;;;;;;5.70;1.90;;;;;;;20.28;34.57;100792.25;5051732;28;20086;-73
2021/05/26 07:10:57;;;;;;;5.97;2.00;;;;;;;20.54;33.24;100790.69;5051829;28;20136;-80
2021/05/26 07:13:25;;;;;;;4.80;1.50;;;;;;;20.53;33.08;100791.69;5051732;28;20071;-76
2021/05/26 07:15:52;;;;;;;6.43;1.98;;;;;;;20.31;34.19;100781.13;5053442;28;20043;-78
2021/05/26 07:18:21;;;;;;;6.10;2.08;;;;;;;19.99;34.46;100779.53;5055813;28;20041;-78
2021/05/26 07:20:51;;;;;;;3.92;1.60;;;;;;;20.29;33.61;100764.16;5055242;28;20077;-78
2021/05/26 07:23:19;;;;;;;6.60;1.88;;;;;;;20.24;34.40;100785.41;5055122;28;20053;-79
2021/05/26 07:25:47;;;;;;;4.68;1.50;;;;;;;19.86;34.78;100781.63;5054077;28;20037;-81
2021/05/26 07:28:16;;;;;;;5.53;1.90;;;;;;;19.54;36.61;100786.34;5054907;28;20049;-77
2021/05/26 07:30:44;;;;;;;6.10;1.85;;;;;;;19.50;36.06;100782.22;5055206;28;20049;-76
2021/05/26 07:33:13;;;;;;;5.05;1.67;;;;;;;19.62;34.48;100787.41;5055316;28;20049;-78
2021/05/26 07:35:41;;;;;;;4.88;1.40;;;;;;;19.48;34.08;100778.78;5055138;28;20079;-78
2021/05/26 07:38:29;;;;;;;4.30;1.65;;;;;;;19.17;35.26;100786.91;5055556;28;20080;-74
2021/05/26 07:40:58;;;;;;;4.85;1.85;;;;;;;19.26;35.46;100791.50;5055223;28;20106;-74
2021/05/26 07:43:28;;;;;;;4.40;1.48;;;;;;;19.02;35.36;100799.06;5055095;28;20061;-78
2021/05/26 07:45:56;;;;;;;4.05;1.40;;;;;;;18.90;33.05;100795.56;5055373;28;20128;-81
2021/05/26 07:48:24;;;;;;;5.68;1.42;;;;;;;18.61;36.83;100792.63;5054807;28;20032;-72
2021/05/26 07:50:52;;;;;;;4.25;1.60;;;;;;;18.54;35.23;100788.75;5054862;28;20102;-72
2021/05/26 07:53:21;;;;;;;7.03;1.63;;;;;;;18.54;34.84;100789.63;5054587;28;20060;-72
2021/05/26 07:55:50;;;;;;;5.15;1.38;;;;;;;18.54;35.01;100789.63;5054902;28;20045;-76
2021/05/26 07:58:18;;;;;;;3.85;1.75;;;;;;;18.80;34.72;100794.66;5049432;28;20053;-78
2021/05/26 08:00:50;;;;;;;5.88;1.98;;;;;;;18.65;33.98;100790.56;5052756;28;20057;-82
2021/05/26 08:03:19;;;;;;;4.72;1.52;;;;;;;18.37;35.03;100787.47;5054131;28;20037;-76
2021/05/26 08:05:48;;;;;;;6.45;1.58;;;;;;;18.34;34.96;100786.88;5054451;28;20057;-77
2021/05/26 08:08:16;;;;;;;5.05;1.60;;;;;;;18.23;35.48;100780.53;5054355;28;20094;-75
2021/05/26 08:10:44;;;;;;;5.35;1.85;;;;;;;18.37;34.79;100778.53;5054558;28;20448;-78
2021/05/26 08:13:13;;;;;;;3.50;1.40;;;;;;;18.36;34.76;100779.50;5038011;28;20037;-78
2021/05/26 08:15:41;;;;;;;4.40;1.40;;;;;;;18.36;35.19;100769.56;5054461;28;20045;-79
2021/05/26 08:18:11;;;;;;;3.75;1.65;;;;;;;18.59;34.87;100770.28;5053399;28;20139;-77
2021/05/26 08:20:40;;;;;;;7.88;1.70;;;;;;;18.57;36.65;100778.53;5054407;28;20041;-74
2021/05/26 08:23:09;;;;;;;4.47;1.70;;;;;;;18.62;38.41;100771.88;5053940;28;20442;-77
2021/05/26 08:25:38;;;;;;;9.35;3.00;;;;;;;18.74;36.43;100769.03;5052793;28;20401;-78
2021/05/26 08:28:06;;;;;;;4.72;1.55;;;;;;;18.83;35.39;100770.94;5053017;28;20070;-74
2021/05/26 08:30:36;;;;;;;8.30;2.00;;;;;;;18.88;36.23;100770.53;5053826;28;20120;-76
2021/05/26 08:33:04;;;;;;;5.57;1.70;;;;;;;18.81;35.84;100764.78;5053789;28;20055;-82
2021/05/26 08:35:33;;;;;;;5.55;1.70;;;;;;;18.85;35.36;100766.25;5053906;28;20047;-78
2021/05/26 08:38:04;;;;;;;5.25;1.90;;;;;;;18.97;34.95;100758.06;5055347;28;20064;-78
2021/05/26 08:40:33;;;;;;;6.10;1.90;;;;;;;18.94;34.79;100767.28;5055231;28;20510;-78
2021/05/26 08:43:03;;;;;;;7.13;1.90;;;;;;;18.48;35.48;100767.66;5058368;28;20064;-85
2021/05/26 08:45:33;;;;;;;5.05;1.70;;;;;;;18.53;36.58;100765.44;5069728;28;20040;-78
2021/05/26 08:48:06;;;;;;;5.30;1.60;;;;;;;18.56;35.25;100755.22;5057953;28;20095;-79
2021/05/26 08:50:34;;;;;;;4.90;1.30;;;;;;;18.66;34.37;100755.31;5054131;28;20128;-75
2021/05/26 08:53:04;;;;;;;8.52;2.00;;;;;;;18.60;33.60;100755.78;5053010;28;20045;-77
2021/05/26 08:55:34;;;;;;;3.75;1.40;;;;;;;18.61;32.10;100749.41;5053278;28;20047;-74
2021/05/26 08:58:02;;;;;;;3.60;1.60;;;;;;;18.45;34.20;100740.91;5053836;28;20072;-71
2021/05/26 09:00:31;;;;;;;3.63;1.35;;;;;;;18.38;33.71;100745.13;5053427;28;20045;-76
2021/05/26 09:02:59;;;;;;;4.80;1.38;;;;;;;18.52;32.30;100736.69;5053335;28;20148;-76
2021/05/26 09:05:29;;;;;;;4.97;1.40;;;;;;;18.45;32.02;100740.91;5053337;28;20124;-75
2021/05/26 09:07:59;;;;;;;4.22;1.38;;;;;;;18.53;33.56;100733.88;5053494;28;20124;-75
2021/05/26 09:10:29;;;;;;;5.38;1.67;;;;;;;18.76;35.21;100734.63;5053723;28;20552;-72
2021/05/26 09:12:58;;;;;;;3.20;1.13;;;;;;;18.88;34.96;100732.69;5053557;28;20041;-74
2021/05/26 09:15:26;;;;;;;4.15;1.50;;;;;;;18.94;32.73;100736.72;5053458;28;20128;-74
2021/05/26 09:17:57;;;;;;;4.18;1.30;;;;;;;18.85;33.51;100732.97;5053523;28;20041;-74
2021/05/26 09:20:27;;;;;;;3.67;1.38;;;;;;;18.52;32.50;100725.88;5053384;28;20049;-74
2021/05/26 09:23:05;;;;;;;3.47;1.20;;;;;;;18.51;31.94;100725.03;5053759;28;20139;-78
2021/05/26 09:25:35;;;;;;;2.80;1.30;;;;;;;18.58;32.48;100720.81;5033484;28;20052;-79
2021/05/26 09:28:24;;;;;;;4.07;1.27;;;;;;;18.43;32.04;100718.56;5033328;28;20098;-76
2021/05/26 09:30:57;;;;;;;3.38;1.38;;;;;;;18.55;32.32;100714.81;5033267;28;20481;-77
2021/05/26 09:33:26;;;;;;;;;;;;;;;18.52;32.68;100715.94;5033802;28;20095;-77
2021/05/26 09:36:15;;;;;;;4.72;1.70;;;;;;;18.63;32.81;100706.06;5033606;28;19928;-83
2021/05/26 09:38:47;;;;;;;2.50;1.35;;;;;;;18.70;32.36;100702.72;5033519;28;20075;-85
2021/05/26 09:41:25;;;;;;;4.65;1.60;;;;;;;18.93;32.74;100705.25;5037099;28;20132;-76
2021/05/26 09:43:55;;;;;;;5.18;1.63;;;;;;;18.93;32.04;100692.59;5036875;28;20053;-76
2021/05/26 09:46:26;;;;;;;4.93;1.67;;;;;;;18.98;32.69;100695.75;5037086;28;20046;-74
2021/05/26 09:49:08;;;;;;;2.85;1.50;;;;;;;18.60;33.01;100690.97;5032855;28;20041;-75
2021/05/26 09:51:39;;;;;;;5.32;1.75;;;;;;;18.71;33.10;100690.91;5032576;28;20053;-75
2021/05/26 09:54:18;;;;;;;6.20;1.52;;;;;;;18.82;32.49;100682.75;5041752;28;20045;-77
2021/05/26 09:56:48;;;;;;;3.38;1.48;;;;;;;18.96;32.81;100675.25;5052962;28;20053;-78
2021/05/26 09:59:17;;;;;;;3.88;1.55;;;;;;;19.04;32.91;100680.84;5052383;28;20055;-78
2021/05/26 10:01:45;;;;;;;8.07;2.13;;;;;;;19.32;32.22;100671.97;5052413;28;20074;-75
2021/05/26 10:04:14;;;;;;;6.40;1.92;;;;;;;19.27;31.67;100676.06;5052580;28;20567;-78
2021/05/26 10:06:43;;;;;;;7.35;2.08;;;;;;;19.26;31.25;100672.50;5047638;28;20402;-81
2021/05/26 10:09:13;;;;;;;5.22;1.80;;;;;;;19.00;30.72;100666.72;5047616;28;20048;-80
2021/05/26 10:11:41;;;;;;;4.07;1.55;;;;;;;18.81;30.98;100667.50;5051668;28;20048;-77
2021/05/26 10:14:11;;;;;;;4.28;1.25;;;;;;;19.12;32.74;100653.97;5051969;28;20455;-78
2021/05/26 10:16:42;;;;;;;4.93;1.40;;;;;;;19.22;32.25;100654.88;5055593;28;20052;-77
2021/05/26 10:19:14;;;;;;;10.07;2.15;;;;;;;19.45;32.93;100644.66;5050065;28;20068;-78
2021/05/26 10:21:42;;;;;;;5.70;2.10;;;;;;;19.69;32.63;100636.19;5052015;28;20083;-82
2021/05/26 10:24:13;;;;;;;6.32;1.58;;;;;;;19.78;31.83;100629.88;5051592;28;20540;-78
2021/05/26 10:26:56;;;;;;;5.65;1.70;;;;;;;19.78;29.79;100631.75;5052132;28;20072;-79
2021/05/26 10:29:43;;;;;;;6.55;1.88;;;;;;;19.72;31.36;100628.63;5036856;28;20041;-77
2021/05/26 10:32:28;;;;;;;5.35;2.00;;;;;;;19.65;31.91;100623.91;5051773;28;20104;-76
2021/05/26 10:35:06;;;;;;;6.47;2.00;;;;;;;19.68;32.74;100619.06;5051776;28;20048;-77
2021/05/26 10:37:40;;;;;;;5.20;2.05;;;;;;;19.76;32.25;100614.81;5051432;28;20045;-74
2021/05/26 10:40:38;;;;;;;4.50;1.98;;;;;;;19.74;31.95;100612.25;5051411;28;20052;-76
2021/05/26 10:43:32;;;;;;;4.60;1.80;;;;;;;19.69;31.46;100620.81;5051596;28;20124;-75
2021/05/26 10:46:02;;;;;;;6.10;2.13;;;;;;;19.81;31.00;100612.53;5051583;28;20417;-73
2021/05/26 10:49:02;;;;;;;6.07;2.00;;;;;;;19.69;30.74;100603.72;5051566;28;20045;-73
2021/05/26 10:51:58;;;;;;;5.13;1.75;;;;;;;19.63;30.88;100604.28;5037511;28;20040;-77
2021/05/26 10:55:06;;;;;;;5.22;2.00;;;;;;;19.81;31.73;100601.72;5051487;28;20037;-76
2021/05/26 10:58:10;;;;;;;5.90;1.85;;;;;;;19.95;32.66;100598.56;5038267;28;20383;-75
2021/05/26 11:00:41;;;;;;;6.13;1.95;;;;;;;20.02;33.19;100599.69;5044805;28;20063;-78
2021/05/26 11:03:43;;;;;;;6.13;1.88;;;;;;;20.14;32.78;100584.13;5050728;28;20045;-76
2021/05/26 11:06:37;;;;;;;5.45;2.08;;;;;;;20.21;33.14;100586.13;5051318;28;20048;-76
2021/05/26 11:09:09;;;;;;;6.57;2.03;;;;;;;20.19;33.36;100581.84;5050361;28;20192;-76
2021/05/26 11:11:47;;;;;;;7.45;2.10;;;;;;;20.23;33.65;100585.97;5050176;28;20520;-75
2021/05/26 11:14:33;;;;;;;4.47;1.83;;;;;;;20.25;33.79;100576.69;5051572;28;20425;-78
2021/05/26 11:17:36;;;;;;;4.85;2.03;;;;;;;20.27;32.76;100579.28;5049111;28;20045;-74
2021/05/26 11:20:16;;;;;;;5.87;2.03;;;;;;;20.20;32.82;100570.00;5051276;28;20045;-75
2021/05/26 11:22:45;;;;;;;5.07;1.88;;;;;;;20.22;33.30;100574.28;5051055;28;20405;-76
2021/05/26 11:25:14;;;;;;;5.60;2.10;;;;;;;20.20;33.06;100570.00;5048899;28;20049;-75
2021/05/26 11:27:56;;;;;;;4.28;1.85;;;;;;;19.99;32.76;100556.66;5051122;28;20035;-74
2021/05/26 11:30:26;;;;;;;5.18;1.90;;;;;;;20.07;34.15;100553.22;5051151;28;20141;-78
2021/05/26 11:32:57;;;;;;;6.65;2.20;;;;;;;20.29;35.29;100556.44;5051076;28;20041;-76
2021/05/26 11:35:25;;;;;;;6.10;2.10;;;;;;;20.48;34.63;100555.56;5051180;28;20033;-74
2021/05/26 11:37:53;;;;;;;6.20;1.80;;;;;;;20.54;32.86;100552.22;5050995;28;20041;-74
2021/05/26 11:40:29;;;;;;;7.35;2.00;;;;;;;20.50;32.81;100549.97;5051048;28;20045;-80
2021/05/26 11:42:59;;;;;;;6.55;2.42;;;;;;;20.60;32.53;100552.66;5049732;28;20508;-77
2021/05/26 11:45:27;;;;;;;5.55;2.35;;;;;;;20.42;32.06;100553.41;5051103;28;20044;-79